Time;durP1;ratioP1;P1;durP2;ratioP2;P2;SDS_P1;SDS_P2;PMS_P1;PMS_P2;Temp;Humidity;BMP_temperature;BMP_pressure;BME280_temperature;BME280_humidity;BME280_pressure;Samples;Min_cycle;Max_cycle;Signal;HPM_P1;HPM_P2
2021/04/19 00:00:16;;;;;;;32.83;25.75;;;;;;;;;;5077385;28;20023;-71
2021/04/19 00:02:43;;;;;;;33.17;25.52;;;;;;;;;;5077016;28;20022;-70
2021/04/19 00:05:10;;;;;;;35.40;26.20;;;;;;;;;;5077363;28;20016;-70
2021/04/19 00:07:36;;;;;;;;;;;;;;;;;;5077335;28;20020;-71
2021/04/19 00:10:04;;;;;;;42.53;26.33;;;;;;;;;;5076858;28;19906;-71
2021/04/19 00:12:30;;;;;;;40.20;28.20;;;;;;;;;;5095296;28;20052;-71
2021/04/19 00:14:56;;;;;;;40.75;28.33;;;;;;;;;;5076759;28;20368;-72
2021/04/19 00:17:22;;;;;;;50.08;31.27;;;;;;;;;;5095158;28;20066;-72
2021/04/19 00:19:48;;;;;;;46.67;31.10;;;;;;;;;;5094853;28;20020;-71
2021/04/19 00:22:14;;;;;;;42.88;29.27;;;;;;;;;;5076516;28;20043;-72
2021/04/19 00:24:41;;;;;;;54.35;32.50;;;;;;;;;;5095088;28;20039;-71
2021/04/19 00:27:07;;;;;;;45.65;29.67;;;;;;;;;;5076877;28;20016;-70
2021/04/19 00:29:33;;;;;;;42.85;28.23;;;;;;;;;;5094407;28;20070;-73
2021/04/19 00:31:59;;;;;;;48.33;31.65;;;;;;;;;;5076751;28;20032;-72
2021/04/19 00:34:25;;;;;;;46.85;29.33;;;;;;;;;;5076771;28;20020;-73
2021/04/19 00:36:51;;;;;;;45.92;29.85;;;;;;;;;;5094313;28;20020;-70
2021/04/19 00:39:18;;;;;;;49.30;31.80;;;;;;;;;;5076554;28;20024;-71
2021/04/19 00:41:44;;;;;;;46.45;30.48;;;;;;;;;;5094516;28;20052;-70
2021/04/19 00:44:10;;;;;;;50.92;32.85;;;;;;;;;;5094461;28;20462;-72
2021/04/19 00:46:37;;;;;;;48.65;31.17;;;;;;;;;;5076450;28;20023;-72
2021/04/19 00:49:03;;;;;;;46.55;30.92;;;;;;;;;;5094675;28;20066;-71
2021/04/19 00:51:29;;;;;;;43.10;29.70;;;;;;;;;;5094330;28;20069;-70
2021/04/19 00:53:55;;;;;;;42.03;30.10;;;;;;;;;;5094524;28;20047;-69
2021/04/19 00:56:22;;;;;;;44.03;31.83;;;;;;;;;;5076270;28;20020;-72
2021/04/19 00:58:48;;;;;;;48.23;33.87;;;;;;;;;;5094078;28;20048;-71
2021/04/19 01:01:14;;;;;;;47.08;31.38;;;;;;;;;;5094400;28;20739;-72
2021/04/19 01:03:41;;;;;;;46.85;34.72;;;;;;;;;;5093803;28;20648;-73
2021/04/19 01:06:08;;;;;;;47.13;33.55;;;;;;;;;;5094145;28;20016;-73
2021/04/19 01:08:34;;;;;;;55.67;35.22;;;;;;;;;;5076178;28;20024;-71
2021/04/19 01:11:00;;;;;;;60.15;37.17;;;;;;;;;;5075757;28;20027;-71
2021/04/19 01:13:26;;;;;;;57.38;38.35;;;;;;;;;;5076122;28;20028;-70
2021/04/19 01:15:53;;;;;;;59.85;38.00;;;;;;;;;;5093903;28;20039;-70
2021/04/19 01:18:19;;;;;;;59.92;39.10;;;;;;;;;;5075725;28;20115;-73
2021/04/19 01:20:46;;;;;;;60.13;38.60;;;;;;;;;;5072411;28;20045;-71
2021/04/19 01:23:12;;;;;;;;;;;;;;;;;;5074457;28;20025;-72
2021/04/19 01:25:39;;;;;;;52.70;34.80;;;;;;;;;;5073597;28;20403;-70
2021/04/19 01:28:05;;;;;;;59.83;38.00;;;;;;;;;;5073531;28;20403;-71
2021/04/19 01:30:33;;;;;;;55.22;36.53;;;;;;;;;;5073536;28;20396;-72
2021/04/19 01:32:59;;;;;;;67.85;41.55;;;;;;;;;;5073507;28;20095;-73
2021/04/19 01:35:26;;;;;;;71.85;41.28;;;;;;;;;;5072491;28;20066;-74
2021/04/19 01:37:52;;;;;;;67.18;40.45;;;;;;;;;;5073476;28;20025;-72
2021/04/19 01:40:18;;;;;;;73.63;41.88;;;;;;;;;;5072079;28;20056;-72
2021/04/19 01:42:45;;;;;;;75.80;42.95;;;;;;;;;;5072141;28;20112;-71
2021/04/19 01:45:12;;;;;;;66.78;39.13;;;;;;;;;;5077422;28;20012;-71
2021/04/19 01:47:38;;;;;;;70.18;41.65;;;;;;;;;;5078745;28;20123;-72
2021/04/19 01:50:09;;;;;;;72.45;41.92;;;;;;;;;;5079037;28;20103;-71
2021/04/19 01:52:36;;;;;;;64.47;39.80;;;;;;;;;;5078686;28;20021;-72
2021/04/19 01:55:03;;;;;;;60.77;36.00;;;;;;;;;;5079014;28;20027;-72
2021/04/19 01:57:30;;;;;;;58.92;36.58;;;;;;;;;;5079829;28;20617;-72
2021/04/19 01:59:56;;;;;;;54.72;33.15;;;;;;;;;;5078581;28;20020;-73
2021/04/19 02:02:41;;;;;;;51.20;33.22;;;;;;;;;;5080281;28;20017;-72
2021/04/19 02:05:36;;;;;;;53.15;34.15;;;;;;;;;;5078569;28;20017;-74
2021/04/19 02:08:17;;;;;;;54.28;34.05;;;;;;;;;;5061174;28;20035;-72
2021/04/19 02:10:50;;;;;;;51.97;32.60;;;;;;;;;;5078870;28;20027;-73
2021/04/19 02:13:22;;;;;;;53.60;32.85;;;;;;;;;;5078778;28;20488;-73
2021/04/19 02:15:51;;;;;;;61.47;35.55;;;;;;;;;;5078796;28;20060;-72
2021/04/19 02:18:18;;;;;;;50.80;32.13;;;;;;;;;;5079968;28;20380;-73
2021/04/19 02:21:10;;;;;;;52.25;34.10;;;;;;;;;;5078209;28;20090;-73
2021/04/19 02:23:37;;;;;;;50.05;34.40;;;;;;;;;;5074719;28;20028;-73
2021/04/19 02:26:10;;;;;;;54.13;35.28;;;;;;;;;;5079747;28;20017;-73
2021/04/19 02:28:37;;;;;;;55.42;34.83;;;;;;;;;;5079935;28;20025;-72
2021/04/19 02:31:05;;;;;;;49.63;32.45;;;;;;;;;;5078770;28;20077;-73
2021/04/19 02:33:34;;;;;;;52.97;33.55;;;;;;;;;;5078711;28;20555;-75
2021/04/19 02:36:00;;;;;;;52.80;33.17;;;;;;;;;;5079591;28;20021;-72
2021/04/19 02:38:30;;;;;;;54.65;33.33;;;;;;;;;;5079910;28;20020;-73
2021/04/19 02:40:59;;;;;;;53.17;33.75;;;;;;;;;;5078574;28;20103;-72
2021/04/19 02:43:26;;;;;;;56.13;35.08;;;;;;;;;;5079547;28;20031;-74
2021/04/19 02:45:53;;;;;;;55.67;32.97;;;;;;;;;;5080074;28;20028;-72
2021/04/19 02:48:22;;;;;;;51.10;32.95;;;;;;;;;;5078586;28;20268;-73
2021/04/19 02:50:48;;;;;;;53.55;34.40;;;;;;;;;;5078416;28;20030;-73
2021/04/19 02:53:15;;;;;;;48.67;31.45;;;;;;;;;;5078551;28;20502;-74
2021/04/19 02:55:41;;;;;;;50.53;33.67;;;;;;;;;;5077002;28;20060;-71
2021/04/19 02:58:09;;;;;;;46.35;30.48;;;;;;;;;;5075291;28;20453;-71
2021/04/19 03:00:37;;;;;;;50.20;34.20;;;;;;;;;;5076192;28;20012;-72
2021/04/19 03:03:08;;;;;;;47.33;32.60;;;;;;;;;;5076472;28;20080;-73
2021/04/19 03:05:35;;;;;;;50.00;31.25;;;;;;;;;;5076702;28;20036;-72
2021/04/19 03:08:02;;;;;;;51.03;32.43;;;;;;;;;;5076431;28;20031;-71
2021/04/19 03:10:32;;;;;;;52.92;32.78;;;;;;;;;;5075789;28;20242;-70
2021/04/19 03:12:59;;;;;;;56.33;35.00;;;;;;;;;;5075058;28;20021;-73
2021/04/19 03:15:34;;;;;;;59.03;36.25;;;;;;;;;;5075979;28;20414;-71
2021/04/19 03:18:02;;;;;;;51.63;33.90;;;;;;;;;;5075625;28;20060;-72
2021/04/19 03:20:30;;;;;;;49.58;32.85;;;;;;;;;;5076208;28;20024;-70
2021/04/19 03:22:57;;;;;;;50.90;33.58;;;;;;;;;;5078455;28;20441;-70
2021/04/19 03:25:27;;;;;;;51.20;33.33;;;;;;;;;;5077864;28;20479;-70
2021/04/19 03:27:55;;;;;;;48.22;31.55;;;;;;;;;;5101070;28;20027;-72
2021/04/19 03:30:21;;;;;;;45.33;31.63;;;;;;;;;;5105196;28;20031;-74
2021/04/19 03:32:52;;;;;;;49.90;32.78;;;;;;;;;;5087643;28;20024;-74
2021/04/19 03:35:27;;;;;;;48.50;32.53;;;;;;;;;;5098317;28;20453;-71
2021/04/19 03:37:53;;;;;;;53.30;35.03;;;;;;;;;;5096018;28;20077;-73
2021/04/19 03:40:22;;;;;;;54.70;34.90;;;;;;;;;;5077625;28;20024;-71
2021/04/19 03:42:50;;;;;;;52.05;33.30;;;;;;;;;;5077823;28;20034;-71
2021/04/19 03:45:17;;;;;;;49.20;33.83;;;;;;;;;;5077437;28;20452;-73
2021/04/19 03:47:44;;;;;;;51.20;33.35;;;;;;;;;;5076938;28;20028;-74
2021/04/19 03:50:11;;;;;;;49.10;33.72;;;;;;;;;;5078516;28;20063;-75
2021/04/19 03:52:38;;;;;;;48.63;31.80;;;;;;;;;;5095548;28;20452;-74
2021/04/19 03:55:06;;;;;;;50.40;33.13;;;;;;;;;;5096731;28;20253;-72
2021/04/19 03:57:33;;;;;;;48.70;33.17;;;;;;;;;;5107210;28;20019;-75
2021/04/19 04:00:04;;;;;;;49.67;33.70;;;;;;;;;;5077563;28;20448;-77
2021/04/19 04:02:32;;;;;;;49.97;35.05;;;;;;;;;;5086179;28;20376;-72
2021/04/19 04:04:59;;;;;;;47.17;33.33;;;;;;;;;;5115922;28;20016;-72
2021/04/19 04:07:26;;;;;;;47.75;32.10;;;;;;;;;;5106469;28;20019;-72
2021/04/19 04:09:54;;;;;;;51.25;34.65;;;;;;;;;;5095565;28;20012;-72
2021/04/19 04:12:20;;;;;;;54.65;37.78;;;;;;;;;;5098834;28;20016;-74
2021/04/19 04:14:53;;;;;;;76.15;50.28;;;;;;;;;;5112617;28;20015;-73
2021/04/19 04:17:20;;;;;;;100.07;65.03;;;;;;;;;;5077134;28;20081;-74
2021/04/19 04:19:46;;;;;;;95.87;61.63;;;;;;;;;;5076893;28;20363;-72
2021/04/19 04:22:13;;;;;;;100.03;64.55;;;;;;;;;;5077105;28;20052;-72
2021/04/19 04:24:39;;;;;;;75.93;50.13;;;;;;;;;;5094899;28;20086;-72
2021/04/19 04:27:06;;;;;;;77.60;52.17;;;;;;;;;;5076672;28;20016;-72
2021/04/19 04:29:33;;;;;;;75.93;52.10;;;;;;;;;;5095397;28;20023;-75
2021/04/19 04:31:59;;;;;;;83.43;55.47;;;;;;;;;;5075128;28;20020;-74
2021/04/19 04:34:25;;;;;;;80.05;54.08;;;;;;;;;;5075257;28;20024;-74
2021/04/19 04:36:51;;;;;;;68.18;45.20;;;;;;;;;;5075938;28;20020;-74
2021/04/19 04:39:17;;;;;;;62.67;41.83;;;;;;;;;;5075929;28;20028;-73
2021/04/19 04:41:43;;;;;;;61.13;39.53;;;;;;;;;;5075344;28;20047;-73
2021/04/19 04:44:12;;;;;;;59.95;40.00;;;;;;;;;;5094149;28;20023;-72
2021/04/19 04:46:38;;;;;;;70.20;42.35;;;;;;;;;;5076301;28;20355;-74
2021/04/19 04:49:07;;;;;;;65.82;41.60;;;;;;;;;;5076267;28;20036;-73
2021/04/19 04:51:34;;;;;;;57.10;38.55;;;;;;;;;;5076478;28;20072;-75
2021/04/19 04:54:02;;;;;;;58.72;37.88;;;;;;;;;;5094736;28;20023;-73
2021/04/19 04:56:31;;;;;;;80.70;53.85;;;;;;;;;;5076089;28;20057;-73
2021/04/19 04:58:58;;;;;;;67.72;43.72;;;;;;;;;;5076215;28;20031;-73
2021/04/19 05:01:26;;;;;;;61.50;39.77;;;;;;;;;;5076584;28;20024;-75
2021/04/19 05:03:51;;;;;;;;;;;;;;;;;;5076705;28;20245;-74
2021/04/19 05:06:18;;;;;;;75.55;52.00;;;;;;;;;;5077133;28;19907;-72
2021/04/19 05:08:44;;;;;;;78.13;46.17;;;;;;;;;;5075930;28;20024;-74
2021/04/19 05:11:12;;;;;;;66.28;46.20;;;;;;;;;;5076167;28;20287;-74
2021/04/19 05:13:38;;;;;;;78.35;51.33;;;;;;;;;;5094553;28;20019;-71
2021/04/19 05:16:05;;;;;;;68.78;45.50;;;;;;;;;;5075820;28;20020;-73
2021/04/19 05:18:31;;;;;;;67.75;43.05;;;;;;;;;;5075527;28;20487;-73
2021/04/19 05:20:57;;;;;;;71.05;42.03;;;;;;;;;;5094010;28;20047;-73
2021/04/19 05:23:24;;;;;;;76.90;45.03;;;;;;;;;;5075835;28;20047;-72
2021/04/19 05:25:50;;;;;;;66.60;40.65;;;;;;;;;;5076147;28;20038;-74
2021/04/19 05:28:19;;;;;;;61.58;39.65;;;;;;;;;;5094112;28;20024;-76
2021/04/19 05:30:46;;;;;;;68.15;43.58;;;;;;;;;;5075579;28;20016;-73
2021/04/19 05:33:12;;;;;;;75.45;44.95;;;;;;;;;;5075992;28;20048;-73
2021/04/19 05:35:38;;;;;;;62.10;39.85;;;;;;;;;;5075930;28;20456;-71
2021/04/19 05:38:05;;;;;;;57.78;37.67;;;;;;;;;;5093843;28;20111;-73
2021/04/19 05:40:32;;;;;;;60.85;39.42;;;;;;;;;;5075818;28;20047;-76
2021/04/19 05:42:59;;;;;;;58.28;36.58;;;;;;;;;;5075912;28;20024;-75
2021/04/19 05:45:25;;;;;;;56.58;37.55;;;;;;;;;;5075486;28;20027;-75
2021/04/19 05:47:53;;;;;;;55.60;38.53;;;;;;;;;;5093645;28;20467;-73
2021/04/19 05:50:20;;;;;;;56.05;37.22;;;;;;;;;;5075688;28;20306;-71
2021/04/19 05:52:46;;;;;;;60.00;39.03;;;;;;;;;;5094068;28;20016;-78
2021/04/19 05:55:13;;;;;;;59.58;39.80;;;;;;;;;;5075734;28;20028;-70
2021/04/19 05:57:42;;;;;;;54.80;34.83;;;;;;;;;;5093377;28;20078;-70
2021/04/19 06:00:29;;;;;;;51.72;35.35;;;;;;;;;;5094069;28;20016;-70
2021/04/19 06:03:05;;;;;;;49.20;35.03;;;;;;;;;;5086140;28;20091;-70
2021/04/19 06:05:54;;;;;;;45.35;31.73;;;;;;;;;;5075400;28;20471;-69
2021/04/19 06:08:23;;;;;;;49.40;33.50;;;;;;;;;;5088070;28;20093;-66
2021/04/19 06:10:51;;;;;;;46.80;33.55;;;;;;;;;;5093719;28;20024;-67
2021/04/19 06:13:20;;;;;;;46.65;31.48;;;;;;;;;;5093412;28;20016;-67
2021/04/19 06:15:47;;;;;;;47.38;31.25;;;;;;;;;;5093365;28;20460;-68
2021/04/19 06:18:14;;;;;;;47.40;33.28;;;;;;;;;;5093457;28;20457;-66
2021/04/19 06:20:40;;;;;;;46.53;31.67;;;;;;;;;;5093117;28;20062;-66
2021/04/19 06:23:07;;;;;;;53.90;34.15;;;;;;;;;;5093936;28;20012;-66
2021/04/19 06:25:33;;;;;;;48.28;30.85;;;;;;;;;;5093258;28;20020;-67
2021/04/19 06:28:06;;;;;;;51.65;31.98;;;;;;;;;;5093834;28;20071;-67
2021/04/19 06:30:40;;;;;;;44.85;29.60;;;;;;;;;;5095779;28;20441;-68
2021/04/19 06:33:07;;;;;;;41.97;30.77;;;;;;;;;;5097125;28;20058;-66
2021/04/19 06:35:33;;;;;;;43.17;31.27;;;;;;;;;;5097046;28;20012;-66
2021/04/19 06:37:59;;;;;;;42.08;29.38;;;;;;;;;;5096916;28;20368;-66
2021/04/19 06:40:26;;;;;;;43.05;29.55;;;;;;;;;;5096931;28;20034;-73
2021/04/19 06:42:57;;;;;;;43.17;30.48;;;;;;;;;;5079020;28;20039;-73
2021/04/19 06:45:23;;;;;;;39.17;26.48;;;;;;;;;;5078893;28;20021;-72
2021/04/19 06:47:52;;;;;;;39.13;26.10;;;;;;;;;;5097119;28;20020;-74
2021/04/19 06:50:18;;;;;;;38.17;26.80;;;;;;;;;;5097020;28;20020;-72
2021/04/19 06:52:48;;;;;;;39.30;28.95;;;;;;;;;;5096704;28;20020;-73
2021/04/19 06:55:18;;;;;;;47.42;34.28;;;;;;;;;;5078427;28;20024;-75
2021/04/19 06:57:45;;;;;;;51.00;34.38;;;;;;;;;;5096621;28;20031;-75
2021/04/19 07:00:12;;;;;;;51.15;33.47;;;;;;;;;;5078606;28;20012;-75
2021/04/19 07:02:44;;;;;;;41.63;31.70;;;;;;;;;;5078352;28;20028;-73
2021/04/19 07:05:12;;;;;;;41.85;30.60;;;;;;;;;;5078776;28;20107;-75
2021/04/19 07:07:45;;;;;;;41.75;29.98;;;;;;;;;;5096129;28;20625;-73
2021/04/19 07:10:13;;;;;;;43.40;29.15;;;;;;;;;;5096766;28;20024;-69
2021/04/19 07:12:41;;;;;;;43.22;30.65;;;;;;;;;;5096917;28;20408;-70
2021/04/19 07:15:08;;;;;;;36.92;27.27;;;;;;;;;;5078067;28;20020;-70
2021/04/19 07:17:35;;;;;;;32.97;24.80;;;;;;;;;;5078276;28;20077;-70
2021/04/19 07:20:03;;;;;;;30.83;21.53;;;;;;;;;;5096236;28;20027;-69
2021/04/19 07:22:29;;;;;;;26.98;21.25;;;;;;;;;;5096495;28;20291;-70
2021/04/19 07:24:55;;;;;;;30.52;19.00;;;;;;;;;;5096036;28;20483;-68
2021/04/19 07:27:21;;;;;;;29.35;22.05;;;;;;;;;;5096053;28;20020;-72
2021/04/19 07:29:48;;;;;;;28.38;21.30;;;;;;;;;;5077821;28;20457;-72
2021/04/19 07:32:15;;;;;;;27.67;21.33;;;;;;;;;;5096010;28;20024;-72
2021/04/19 07:34:41;;;;;;;34.28;27.05;;;;;;;;;;5078233;28;20019;-73
2021/04/19 07:37:08;;;;;;;32.45;24.52;;;;;;;;;;5077714;28;20107;-73
2021/04/19 07:39:34;;;;;;;;;;;;;;;;;;5096425;28;20035;-74
2021/04/19 07:42:02;;;;;;;31.63;25.85;;;;;;;;;;5077169;28;19904;-75
2021/04/19 07:44:34;;;;;;;49.05;35.00;;;;;;;;;;5077527;28;20020;-72
2021/04/19 07:47:19;;;;;;;48.83;33.50;;;;;;;;;;5077839;28;20345;-74
2021/04/19 07:49:58;;;;;;;42.70;27.25;;;;;;;;;;5077397;28;20019;-73
2021/04/19 07:52:24;;;;;;;33.97;22.85;;;;;;;;;;5077744;28;20102;-73
2021/04/19 07:55:03;;;;;;;37.53;23.70;;;;;;;;;;5096621;28;20475;-73
2021/04/19 07:57:29;;;;;;;34.72;24.67;;;;;;;;;;5095420;28;20512;-73
2021/04/19 07:59:55;;;;;;;33.72;23.48;;;;;;;;;;5078128;28;20016;-74
2021/04/19 08:02:21;;;;;;;33.28;23.63;;;;;;;;;;5077519;28;20048;-74
2021/04/19 08:04:48;;;;;;;34.90;25.20;;;;;;;;;;5077190;28;20448;-74
2021/04/19 08:07:33;;;;;;;31.92;20.65;;;;;;;;;;5095300;28;20031;-74
2021/04/19 08:10:07;;;;;;;28.77;19.67;;;;;;;;;;5078154;28;20360;-74
2021/04/19 08:12:37;;;;;;;34.47;22.65;;;;;;;;;;5095166;28;20321;-73
2021/04/19 08:15:06;;;;;;;42.65;25.35;;;;;;;;;;5077264;28;20016;-73
2021/04/19 08:17:33;;;;;;;40.35;25.73;;;;;;;;;;5076768;28;20020;-74
2021/04/19 08:20:00;;;;;;;30.88;21.20;;;;;;;;;;5095121;28;20023;-75
2021/04/19 08:22:30;;;;;;;31.35;20.98;;;;;;;;;;5077385;28;20044;-75
2021/04/19 08:25:15;;;;;;;27.60;19.88;;;;;;;;;;5094853;28;20020;-74
2021/04/19 08:27:42;;;;;;;25.27;17.95;;;;;;;;;;5095203;28;20024;-74
2021/04/19 08:30:12;;;;;;;26.20;18.77;;;;;;;;;;5076958;28;20027;-73
2021/04/19 08:32:38;;;;;;;23.27;17.92;;;;;;;;;;5094787;28;20483;-73
2021/04/19 08:35:07;;;;;;;21.60;16.25;;;;;;;;;;5094997;28;20032;-73
2021/04/19 08:37:34;;;;;;;26.83;19.48;;;;;;;;;;5076952;28;20329;-74
2021/04/19 08:40:00;;;;;;;24.77;17.50;;;;;;;;;;5094390;28;20396;-73
2021/04/19 08:42:27;;;;;;;27.75;18.25;;;;;;;;;;5094892;28;20027;-70
2021/04/19 08:44:58;;;;;;;25.40;18.03;;;;;;;;;;5094901;28;20020;-73
2021/04/19 08:47:28;;;;;;;33.13;20.23;;;;;;;;;;5076312;28;20430;-74
2021/04/19 08:49:55;;;;;;;30.77;19.67;;;;;;;;;;5076868;28;20020;-74
2021/04/19 08:52:22;;;;;;;19.05;14.43;;;;;;;;;;5077104;28;20020;-74
2021/04/19 08:54:48;;;;;;;20.33;15.97;;;;;;;;;;5093983;28;20464;-74
2021/04/19 08:57:14;;;;;;;24.52;15.45;;;;;;;;;;5099574;28;20248;-73
2021/04/19 08:59:43;;;;;;;27.77;16.83;;;;;;;;;;5103431;28;20028;-73
2021/04/19 09:02:10;;;;;;;25.48;15.68;;;;;;;;;;5084074;28;20012;-73
2021/04/19 09:04:36;;;;;;;27.13;15.27;;;;;;;;;;5103623;28;20023;-76
2021/04/19 09:07:03;;;;;;;17.38;13.60;;;;;;;;;;5103523;28;20348;-73
2021/04/19 09:09:32;;;;;;;19.38;15.10;;;;;;;;;;5101913;28;20020;-72
2021/04/19 09:11:58;;;;;;;22.45;13.40;;;;;;;;;;5082263;28;20020;-72
2021/04/19 09:14:34;;;;;;;18.33;13.00;;;;;;;;;;5101123;28;20020;-72
2021/04/19 09:17:01;;;;;;;13.15;10.05;;;;;;;;;;5086024;28;20073;-72
2021/04/19 09:19:27;;;;;;;21.80;13.25;;;;;;;;;;5103961;28;20020;-72
2021/04/19 09:22:06;;;;;;;19.98;14.05;;;;;;;;;;5102010;28;20044;-72
2021/04/19 09:24:52;;;;;;;17.10;13.23;;;;;;;;;;5085927;28;20422;-71
2021/04/19 09:27:38;;;;;;;20.35;13.43;;;;;;;;;;5102503;28;20104;-71
2021/04/19 09:30:23;;;;;;;18.98;11.85;;;;;;;;;;5103304;28;20058;-72
2021/04/19 09:33:05;;;;;;;18.25;13.38;;;;;;;;;;5086216;28;20016;-71
2021/04/19 09:35:46;;;;;;;37.70;13.48;;;;;;;;;;5085439;28;20022;-71
2021/04/19 09:38:31;;;;;;;17.90;12.90;;;;;;;;;;5085732;28;20468;-70
2021/04/19 09:41:03;;;;;;;24.88;12.25;;;;;;;;;;5085578;28;20030;-69
2021/04/19 09:43:30;;;;;;;15.55;12.40;;;;;;;;;;5103465;28;20019;-69
2021/04/19 09:45:57;;;;;;;20.75;13.23;;;;;;;;;;5084147;28;20012;-70
2021/04/19 09:48:23;;;;;;;;;;;;;;;;;;5102451;28;20091;-71
2021/04/19 09:50:49;;;;;;;15.07;10.77;;;;;;;;;;5104048;28;20428;-70
2021/04/19 09:53:17;;;;;;;17.75;11.95;;;;;;;;;;5101963;28;20333;-71
2021/04/19 09:55:44;;;;;;;20.92;12.50;;;;;;;;;;5101388;28;20016;-71
2021/04/19 09:58:10;;;;;;;22.17;12.05;;;;;;;;;;5103587;28;20055;-72
2021/04/19 10:00:36;;;;;;;21.97;12.87;;;;;;;;;;5102373;28;20013;-70
2021/04/19 10:03:02;;;;;;;14.65;10.70;;;;;;;;;;5083616;28;20096;-72
2021/04/19 10:05:30;;;;;;;15.35;11.57;;;;;;;;;;5104937;28;20015;-72
2021/04/19 10:07:58;;;;;;;16.73;12.43;;;;;;;;;;5088089;28;20047;-72
2021/04/19 10:10:24;;;;;;;11.85;9.57;;;;;;;;;;5105446;28;20019;-71
2021/04/19 10:12:51;;;;;;;15.52;10.40;;;;;;;;;;5089372;28;20015;-73
2021/04/19 10:15:18;;;;;;;20.02;12.57;;;;;;;;;;5088112;28;20107;-72
2021/04/19 10:17:44;;;;;;;19.67;11.90;;;;;;;;;;5087184;28;20038;-71
2021/04/19 10:20:19;;;;;;;20.85;13.00;;;;;;;;;;5091997;28;20026;-74
2021/04/19 10:22:45;;;;;;;16.85;10.52;;;;;;;;;;5089059;28;20075;-70
2021/04/19 10:25:12;;;;;;;13.93;10.63;;;;;;;;;;5104937;28;20013;-68
2021/04/19 10:27:40;;;;;;;12.43;10.07;;;;;;;;;;5085704;28;20244;-69
2021/04/19 10:30:11;;;;;;;13.18;9.93;;;;;;;;;;5097191;28;20008;-73
2021/04/19 10:32:37;;;;;;;14.82;10.18;;;;;;;;;;5078860;28;20016;-70
2021/04/19 10:35:03;;;;;;;19.85;15.75;;;;;;;;;;5097400;28;20016;-70
2021/04/19 10:37:29;;;;;;;26.90;16.98;;;;;;;;;;5096965;28;20020;-70
2021/04/19 10:39:55;;;;;;;34.67;24.63;;;;;;;;;;5097230;28;20016;-70
2021/04/19 10:42:31;;;;;;;26.38;19.92;;;;;;;;;;5079074;28;20402;-68
2021/04/19 10:45:07;;;;;;;31.65;22.80;;;;;;;;;;5078754;28;20040;-70
2021/04/19 10:47:33;;;;;;;38.85;28.63;;;;;;;;;;5097570;28;20099;-69
2021/04/19 10:50:00;;;;;;;33.20;23.38;;;;;;;;;;5078892;28;20027;-70
2021/04/19 10:52:26;;;;;;;35.75;22.33;;;;;;;;;;5097314;28;20016;-69
2021/04/19 10:54:54;;;;;;;31.60;23.55;;;;;;;;;;5078779;28;20480;-70
2021/04/19 10:57:29;;;;;;;35.25;23.67;;;;;;;;;;5078745;28;20111;-69
2021/04/19 10:59:59;;;;;;;33.55;23.08;;;;;;;;;;5078633;28;20035;-70
2021/04/19 11:02:26;;;;;;;33.85;22.00;;;;;;;;;;5078620;28;20012;-70
2021/04/19 11:04:53;;;;;;;32.67;21.88;;;;;;;;;;5096772;28;20066;-71
2021/04/19 11:07:27;;;;;;;37.33;25.13;;;;;;;;;;5096518;28;20016;-70
2021/04/19 11:10:13;;;;;;;42.78;27.92;;;;;;;;;;5096975;28;20483;-70
2021/04/19 11:12:39;;;;;;;38.93;26.47;;;;;;;;;;5096698;28;20054;-70
2021/04/19 11:15:12;;;;;;;34.72;23.02;;;;;;;;;;5096846;28;20612;-69
2021/04/19 11:17:38;;;;;;;32.40;21.88;;;;;;;;;;5095370;28;20015;-70
2021/04/19 11:20:23;;;;;;;46.78;30.15;;;;;;;;;;5082718;28;20016;-67
2021/04/19 11:22:50;;;;;;;47.28;30.95;;;;;;;;;;5088078;28;20554;-67
2021/04/19 11:25:19;;;;;;;44.13;29.40;;;;;;;;;;5105843;28;20044;-68
2021/04/19 11:27:46;;;;;;;44.78;30.50;;;;;;;;;;5103918;28;20022;-67
2021/04/19 11:30:19;;;;;;;43.97;28.02;;;;;;;;;;5105022;28;20026;-67
2021/04/19 11:32:45;;;;;;;43.65;28.65;;;;;;;;;;5104118;28;20020;-68
2021/04/19 11:35:25;;;;;;;39.17;23.83;;;;;;;;;;5086514;28;20419;-66
2021/04/19 11:37:58;;;;;;;33.70;21.40;;;;;;;;;;5087642;28;20028;-67
2021/04/19 11:40:33;;;;;;;37.92;24.02;;;;;;;;;;5085392;28;20016;-67
2021/04/19 11:43:14;;;;;;;33.13;22.85;;;;;;;;;;5103522;28;20478;-68
2021/04/19 11:45:41;;;;;;;30.05;21.83;;;;;;;;;;5087630;28;20020;-68
2021/04/19 11:48:07;;;;;;;30.58;20.88;;;;;;;;;;5105234;28;20022;-68
2021/04/19 11:50:33;;;;;;;27.38;19.40;;;;;;;;;;5105002;28;20008;-69
2021/04/19 11:52:59;;;;;;;26.50;19.48;;;;;;;;;;5103557;28;20028;-69
2021/04/19 11:55:25;;;;;;;44.00;22.67;;;;;;;;;;5085161;28;20044;-69
2021/04/19 11:57:51;;;;;;;46.17;26.88;;;;;;;;;;5104190;28;20065;-68
2021/04/19 12:00:18;;;;;;;39.63;21.73;;;;;;;;;;5105010;28;20656;-68
2021/04/19 12:02:44;;;;;;;33.53;21.98;;;;;;;;;;5103122;28;20464;-67
2021/04/19 12:05:11;;;;;;;32.97;21.48;;;;;;;;;;5104581;28;20023;-66
2021/04/19 12:07:37;;;;;;;41.65;30.98;;;;;;;;;;5102992;28;20090;-70
2021/04/19 12:10:04;;;;;;;29.85;22.85;;;;;;;;;;5086916;28;20011;-69
2021/04/19 12:12:30;;;;;;;39.33;24.88;;;;;;;;;;5087275;28;20066;-69
2021/04/19 12:14:56;;;;;;;33.28;24.30;;;;;;;;;;5103407;28;20042;-69
2021/04/19 12:17:22;;;;;;;33.92;23.90;;;;;;;;;;5087101;28;20015;-69
2021/04/19 12:19:48;;;;;;;28.67;20.88;;;;;;;;;;5104257;28;20032;-70
2021/04/19 12:22:14;;;;;;;27.75;19.55;;;;;;;;;;5083277;28;20044;-71
2021/04/19 12:24:41;;;;;;;22.83;16.40;;;;;;;;;;5085022;28;20056;-70
2021/04/19 12:27:07;;;;;;;25.50;18.83;;;;;;;;;;5083552;28;20085;-70
2021/04/19 12:29:33;;;;;;;24.63;19.33;;;;;;;;;;5083018;28;20088;-69
2021/04/19 12:32:00;;;;;;;34.80;23.92;;;;;;;;;;5103259;28;20016;-70
2021/04/19 12:34:26;;;;;;;31.75;21.98;;;;;;;;;;5084321;28;20023;-70
2021/04/19 12:36:54;;;;;;;27.15;19.45;;;;;;;;;;5102127;28;20019;-70
2021/04/19 12:39:20;;;;;;;30.63;20.95;;;;;;;;;;5100752;28;20118;-70
2021/04/19 12:41:47;;;;;;;32.80;22.30;;;;;;;;;;5102427;28;20016;-70
2021/04/19 12:44:13;;;;;;;29.33;23.25;;;;;;;;;;5102384;28;20015;-70
2021/04/19 12:46:39;;;;;;;35.97;26.67;;;;;;;;;;5085255;28;20020;-70
2021/04/19 12:49:05;;;;;;;34.17;25.33;;;;;;;;;;5101829;28;20070;-71
2021/04/19 12:51:32;;;;;;;45.38;30.05;;;;;;;;;;5085987;28;20039;-70
2021/04/19 12:53:58;;;;;;;35.38;25.13;;;;;;;;;;5101666;28;20030;-70
2021/04/19 12:56:24;;;;;;;34.10;22.52;;;;;;;;;;5095968;28;20157;-71
2021/04/19 12:58:50;;;;;;;60.55;44.80;;;;;;;;;;5114012;28;20076;-68
2021/04/19 13:01:16;;;;;;;48.63;34.55;;;;;;;;;;5112958;28;20414;-70
2021/04/19 13:03:42;;;;;;;51.35;38.10;;;;;;;;;;5114247;28;20019;-68
2021/04/19 13:06:08;;;;;;;49.22;33.70;;;;;;;;;;5113769;28;20027;-71
2021/04/19 13:08:35;;;;;;;42.00;27.58;;;;;;;;;;5094860;28;20072;-69
2021/04/19 13:11:01;;;;;;;36.92;25.40;;;;;;;;;;5114218;28;20456;-69
2021/04/19 13:13:27;;;;;;;31.65;21.23;;;;;;;;;;5113389;28;20016;-69
2021/04/19 13:15:53;;;;;;;27.02;18.98;;;;;;;;;;5113329;28;20086;-69
2021/04/19 13:18:19;;;;;;;34.35;24.85;;;;;;;;;;5113463;28;20084;-69
2021/04/19 13:20:46;;;;;;;49.85;31.27;;;;;;;;;;5094696;28;20047;-69
2021/04/19 13:23:12;;;;;;;39.00;29.30;;;;;;;;;;5113417;28;20049;-69
2021/04/19 13:25:38;;;;;;;40.20;26.63;;;;;;;;;;5095260;28;20524;-69
2021/04/19 13:28:05;;;;;;;27.65;19.48;;;;;;;;;;5095362;28;20031;-69
2021/04/19 13:30:32;;;;;;;18.10;14.68;;;;;;;;;;5112981;28;20094;-69
2021/04/19 13:32:58;;;;;;;;;;;;;;;;;;5113982;28;20019;-68
2021/04/19 13:35:25;;;;;;;17.23;10.40;;;;;;;;;;5113844;28;19907;-68
2021/04/19 13:37:51;;;;;;;14.40;9.57;;;;;;;;;;5112873;28;20103;-68
2021/04/19 13:40:18;;;;;;;15.23;10.05;;;;;;;;;;5112655;28;20023;-67
2021/04/19 13:42:44;;;;;;;24.17;14.60;;;;;;;;;;5095521;28;20111;-75
2021/04/19 13:45:12;;;;;;;18.67;9.90;;;;;;;;;;5094645;28;20061;-73
2021/04/19 13:47:38;;;;;;;13.20;8.70;;;;;;;;;;5095236;28;20023;-72
2021/04/19 13:50:05;;;;;;;14.15;9.00;;;;;;;;;;5095356;28;20016;-74
2021/04/19 13:52:31;;;;;;;14.65;8.30;;;;;;;;;;5094885;28;20045;-75
2021/04/19 13:54:57;;;;;;;20.35;11.95;;;;;;;;;;5094803;28;20016;-74
2021/04/19 13:57:23;;;;;;;12.93;8.00;;;;;;;;;;5095342;28;20019;-75
2021/04/19 13:59:50;;;;;;;16.48;10.65;;;;;;;;;;5113011;28;20024;-74
2021/04/19 14:02:17;;;;;;;16.08;8.90;;;;;;;;;;5094558;28;20059;-74
2021/04/19 14:04:43;;;;;;;15.20;8.80;;;;;;;;;;5095202;28;20019;-72
2021/04/19 14:07:09;;;;;;;11.05;7.70;;;;;;;;;;5113543;28;20565;-72
2021/04/19 14:09:35;;;;;;;13.27;7.80;;;;;;;;;;5112149;28;20050;-70
2021/04/19 14:12:01;;;;;;;16.13;7.70;;;;;;;;;;5113107;28;20018;-73
2021/04/19 14:14:29;;;;;;;8.60;6.35;;;;;;;;;;5094780;28;20037;-69
2021/04/19 14:16:55;;;;;;;;;;;;;;;;;;5113306;28;20019;-69
2021/04/19 14:19:21;;;;;;;10.85;7.03;;;;;;;;;;5097925;28;19995;-69
2021/04/19 14:21:47;;;;;;;14.65;8.90;;;;;;;;;;5092764;28;20036;-70
2021/04/19 14:24:13;;;;;;;15.70;9.50;;;;;;;;;;5073995;28;20012;-71
2021/04/19 14:26:39;;;;;;;14.55;8.80;;;;;;;;;;5092622;28;20062;-73